Search METAR Data

METAR Data for ENRS:

ENRS 301120Z 21013KT CAVOK 14/10 Q1011